Time;durP1;ratioP1;P1;durP2;ratioP2;P2;SDS_P1;SDS_P2;PMS_P1;PMS_P2;Temp;Humidity;BMP_temperature;BMP_pressure;BME280_temperature;BME280_humidity;BME280_pressure;Samples;Min_cycle;Max_cycle;Signal;HPM_P1;HPM_P2
2022/04/26 03:36:10;;;;;;;4.72;1.10;;;;;;;17.16;46.88;100860.47;5086491;28;20406;-63
2022/04/26 03:38:37;;;;;;;3.08;1.30;;;;;;;17.13;46.86;100860.06;5086748;28;20414;-63
2022/04/26 03:42:20;;;;;;;2.38;1.50;;;;;;;17.13;46.71;100858.19;5118314;27;20433;-62
2022/04/26 03:44:47;;;;;;;3.50;1.88;;;;;;;17.17;46.69;100858.59;5086940;28;20594;-63
2022/04/26 03:47:14;;;;;;;6.47;1.80;;;;;;;17.22;46.74;100864.16;5086806;28;20497;-62
2022/04/26 03:49:41;;;;;;;3.80;1.63;;;;;;;17.25;46.55;100862.88;5087195;28;20441;-61
2022/04/26 03:52:09;;;;;;;7.78;2.10;;;;;;;17.32;46.58;100861.00;5087189;28;20422;-62
2022/04/26 03:54:36;;;;;;;9.60;2.13;;;;;;;17.41;46.15;100867.78;5086669;28;20409;-62
2022/04/26 03:57:04;;;;;;;8.48;2.20;;;;;;;17.45;46.26;100866.34;5086993;28;20449;-62
2022/04/26 03:59:32;;;;;;;4.53;2.20;;;;;;;17.60;45.93;100866.06;5086597;28;20848;-62
2022/04/26 04:01:59;;;;;;;5.10;2.20;;;;;;;17.81;45.70;100878.38;5086874;28;20523;-62
2022/04/26 04:04:26;;;;;;;7.50;2.57;;;;;;;18.02;45.41;100874.56;5086898;28;20430;-62
2022/04/26 04:06:53;;;;;;;13.70;3.23;;;;;;;18.03;45.60;100881.56;5086545;28;20446;-63
2022/04/26 04:09:20;;;;;;;17.00;6.93;;;;;;;18.17;45.12;100876.97;5086694;28;20460;-62
2022/04/26 04:11:47;;;;;;;17.57;7.43;;;;;;;18.56;44.43;100880.38;5086606;28;20414;-62
2022/04/26 04:15:32;;;;;;;16.40;8.15;;;;;;;18.75;42.74;100885.81;5118214;27;20398;-63
2022/04/26 04:17:59;;;;;;;13.00;5.50;;;;;;;18.70;42.62;100889.97;5087243;28;20495;-62
2022/04/26 04:21:27;;;;;;;11.20;5.10;;;;;;;18.76;42.24;100890.94;5118431;27;20405;-62
2022/04/26 04:23:54;;;;;;;9.47;4.10;;;;;;;18.96;41.72;100885.44;5087279;28;20890;-62
2022/04/26 04:26:21;;;;;;;9.97;3.87;;;;;;;18.70;42.36;100889.97;5087177;28;20442;-62
2022/04/26 04:28:48;;;;;;;7.83;3.80;;;;;;;18.59;42.61;100885.31;5086685;28;20932;-64
2022/04/26 04:31:14;;;;;;;9.00;7.20;;;;;;;18.51;42.50;100894.47;5086730;28;20438;-63
2022/04/26 04:33:43;;;;;;;13.38;9.88;;;;;;;18.36;42.93;100895.81;5086656;28;20414;-62
2022/04/26 04:36:10;;;;;;;15.27;11.03;;;;;;;18.26;43.33;100901.69;5086570;28;20464;-62
2022/04/26 04:38:39;;;;;;;13.23;11.55;;;;;;;18.24;43.12;100909.94;5086955;28;20410;-63
2022/04/26 04:41:06;;;;;;;16.05;11.23;;;;;;;18.17;43.61;100900.25;5086712;28;20425;-62
2022/04/26 04:43:33;;;;;;;11.43;9.35;;;;;;;18.06;43.81;100907.97;5086456;28;20416;-62
2022/04/26 04:47:26;;;;;;;14.18;7.88;;;;;;;19.04;42.30;100909.31;5118184;27;20401;-62
2022/04/26 04:49:53;;;;;;;15.30;8.10;;;;;;;20.05;40.32;100904.47;5086565;28;20407;-62
2022/04/26 04:52:20;;;;;;;13.80;7.10;;;;;;;20.84;38.71;100911.59;5086965;28;20421;-62
2022/04/26 04:54:47;;;;;;;11.30;5.60;;;;;;;21.59;37.12;100901.94;5086786;28;20420;-62
2022/04/26 04:57:14;;;;;;;11.90;5.40;;;;;;;22.38;35.57;100908.53;5087032;28;20450;-62
2022/04/26 04:59:41;;;;;;;8.63;4.82;;;;;;;22.85;34.69;100902.81;5087209;28;21289;-62
2022/04/26 05:02:08;;;;;;;8.85;4.38;;;;;;;23.41;33.32;100910.94;5086594;28;20409;-63
2022/04/26 05:04:36;;;;;;;7.03;3.50;;;;;;;24.06;32.58;100901.16;5086838;28;20434;-62
2022/04/26 05:07:04;;;;;;;12.07;3.67;;;;;;;24.69;31.58;100897.94;5086415;28;20939;-62
2022/04/26 05:09:31;;;;;;;7.82;2.50;;;;;;;25.35;30.57;100897.53;5086842;28;20433;-63
2022/04/26 05:11:58;;;;;;;5.70;2.72;;;;;;;25.80;29.83;100903.41;5086647;28;20414;-60
2022/04/26 05:14:25;;;;;;;5.20;2.75;;;;;;;26.40;28.95;100892.91;5086988;28;20446;-61
2022/04/26 05:16:52;;;;;;;9.88;2.88;;;;;;;26.98;28.06;100898.88;5086382;28;20796;-63
2022/04/26 05:19:19;;;;;;;6.95;2.13;;;;;;;27.57;27.55;100896.53;5086704;28;20434;-63
2022/04/26 05:21:47;;;;;;;9.40;2.30;;;;;;;28.01;26.90;100899.28;5086113;28;20442;-61
2022/04/26 05:26:59;;;;;;;3.80;1.60;;;;;;;28.88;25.70;100903.25;5086035;28;21009;-61
2022/04/26 05:29:26;;;;;;;8.43;2.03;;;;;;;29.40;25.22;100903.50;5086556;28;20453;-63
2022/04/26 05:31:53;;;;;;;6.82;1.92;;;;;;;29.85;24.79;100909.47;5086339;28;20446;-61
2022/04/26 05:34:20;;;;;;;4.45;2.40;;;;;;;30.37;24.32;100900.53;5086291;28;20414;-63
2022/04/26 05:36:48;;;;;;;5.13;1.97;;;;;;;30.49;24.24;100901.69;5086004;28;20787;-63
2022/04/26 05:39:15;;;;;;;4.82;2.40;;;;;;;30.84;23.69;100910.34;5086291;28;20406;-63
2022/04/26 05:41:42;;;;;;;7.55;2.80;;;;;;;31.36;22.95;100920.34;5085964;28;20416;-63
2022/04/26 05:44:09;;;;;;;8.73;2.75;;;;;;;31.77;22.83;100920.31;5086176;28;20418;-64
2022/04/26 05:46:37;;;;;;;7.32;2.45;;;;;;;32.27;22.33;100918.66;5086014;28;20429;-63
2022/04/26 05:49:04;;;;;;;5.73;2.00;;;;;;;32.53;21.48;100919.63;5086127;28;20901;-63
2022/04/26 05:51:30;;;;;;;8.65;3.10;;;;;;;33.08;20.85;100915.75;5085753;28;20421;-65
2022/04/26 05:53:59;;;;;;;6.93;2.20;;;;;;;33.31;21.09;100910.19;5085692;28;20907;-63
2022/04/26 05:56:26;;;;;;;6.47;2.30;;;;;;;33.79;20.34;100909.31;5085693;28;20446;-63
2022/04/26 05:58:53;;;;;;;8.27;1.98;;;;;;;34.13;20.09;100912.41;5071421;28;20415;-63
2022/04/26 06:01:20;;;;;;;7.90;1.98;;;;;;;34.36;19.78;100911.09;5072319;28;20501;-65
2022/04/26 06:03:47;;;;;;;6.65;1.50;;;;;;;34.83;18.99;100911.16;5072259;28;20406;-64
2022/04/26 06:06:14;;;;;;;3.45;1.35;;;;;;;34.85;18.81;100906.13;5071920;28;20969;-63
2022/04/26 06:08:41;;;;;;;4.50;1.60;;;;;;;34.99;18.98;100907.84;5071974;28;20417;-63
2022/04/26 06:11:09;;;;;;;6.10;2.00;;;;;;;35.28;18.79;100904.31;5071974;28;20410;-63
2022/04/26 06:13:36;;;;;;;4.75;1.55;;;;;;;35.33;18.71;100904.13;5072476;28;20413;-64
2022/04/26 06:16:03;;;;;;;11.93;2.00;;;;;;;35.70;18.46;100907.13;5072132;28;20504;-64
2022/04/26 06:18:30;;;;;;;6.13;1.60;;;;;;;36.05;18.06;100900.53;5072116;28;20450;-63
2022/04/26 06:20:57;;;;;;;5.10;1.70;;;;;;;36.31;17.82;100897.56;5072059;28;20410;-64
2022/04/26 06:23:24;;;;;;;4.05;1.60;;;;;;;35.32;18.62;100898.94;5071966;28;20491;-62
2022/04/26 06:25:51;;;;;;;4.00;1.70;;;;;;;36.05;17.79;100898.59;5072180;28;20522;-61
2022/04/26 06:28:19;;;;;;;6.30;2.00;;;;;;;34.95;18.96;100898.63;5072076;28;20434;-61
2022/04/26 06:30:46;;;;;;;5.53;2.10;;;;;;;34.65;19.19;100910.38;5071618;28;20410;-63
2022/04/26 06:33:13;;;;;;;3.75;1.60;;;;;;;35.78;18.32;100897.19;5071861;28;20422;-63
2022/04/26 06:35:40;;;;;;;3.13;1.50;;;;;;;36.13;17.86;100894.91;5071704;28;20413;-61
2022/04/26 06:38:07;;;;;;;4.82;1.52;;;;;;;36.34;17.75;100894.13;5071441;28;20411;-61
2022/04/26 06:40:35;;;;;;;5.10;1.42;;;;;;;36.54;17.35;100901.50;5071580;28;20438;-61
2022/04/26 06:43:02;;;;;;;3.20;1.45;;;;;;;35.81;18.13;100906.75;5071644;28;20534;-63
2022/04/26 06:45:30;;;;;;;3.42;1.30;;;;;;;35.38;18.33;100911.38;5071731;28;20418;-63
2022/04/26 06:47:58;;;;;;;3.17;1.30;;;;;;;34.98;18.26;100906.22;5071586;28;20422;-64
2022/04/26 06:50:25;;;;;;;2.75;0.93;;;;;;;34.61;17.80;100912.19;5071151;28;20920;-63
2022/04/26 06:52:52;;;;;;;3.92;0.90;;;;;;;35.42;16.94;100898.56;5071398;28;20415;-63
2022/04/26 06:55:20;;;;;;;3.10;0.90;;;;;;;36.02;16.36;100910.28;5071374;28;20411;-64
2022/04/26 06:57:46;;;;;;;4.07;1.05;;;;;;;35.95;16.52;100901.75;5070934;28;20410;-61
2022/04/26 07:00:15;;;;;;;3.33;1.10;;;;;;;36.14;16.91;100904.00;5070935;28;20425;-61
2022/04/26 07:02:43;;;;;;;2.75;1.15;;;;;;;36.55;16.39;100897.63;5070910;28;20418;-61
2022/04/26 07:05:11;;;;;;;3.63;1.20;;;;;;;36.47;17.08;100895.75;5070848;28;20449;-61
2022/04/26 07:07:39;;;;;;;2.83;1.17;;;;;;;36.08;16.60;100897.09;5071077;28;20431;-61
2022/04/26 07:10:08;;;;;;;1.60;1.30;;;;;;;36.05;16.91;100901.34;5069735;28;20422;-61
2022/04/26 07:12:35;;;;;;;3.25;1.20;;;;;;;35.50;17.31;100905.16;5070635;28;20425;-63
2022/04/26 07:15:02;;;;;;;3.13;2.03;;;;;;;35.11;16.85;100896.13;5070474;28;20447;-62
2022/04/26 07:17:29;;;;;;;4.78;1.20;;;;;;;34.24;17.54;100909.00;5070901;28;20924;-61
2022/04/26 07:19:58;;;;;;;3.63;1.00;;;;;;;33.93;18.22;100909.16;5070449;28;20425;-61
2022/04/26 07:22:26;;;;;;;3.20;1.40;;;;;;;33.18;18.88;100900.13;5070482;28;20411;-62
2022/04/26 07:24:53;;;;;;;3.47;1.30;;;;;;;33.33;18.55;100905.16;5070660;28;20415;-62
2022/04/26 07:27:20;;;;;;;3.67;1.20;;;;;;;33.48;17.91;100901.97;5070499;28;20466;-63
2022/04/26 07:29:49;;;;;;;2.50;1.15;;;;;;;33.16;17.61;100905.94;5070656;28;20496;-63
2022/04/26 07:32:16;;;;;;;3.38;1.80;;;;;;;33.13;17.68;100903.81;5070481;28;20417;-62
2022/04/26 07:34:42;;;;;;;4.03;1.10;;;;;;;31.63;18.52;100916.81;5070588;28;20411;-62
2022/04/26 07:37:11;;;;;;;2.53;1.20;;;;;;;30.01;20.73;100921.00;5070118;28;20485;-63
2022/04/26 07:39:38;;;;;;;5.75;1.27;;;;;;;30.08;21.10;100918.72;5070066;28;20442;-62
2022/04/26 07:42:06;;;;;;;4.13;1.20;;;;;;;30.58;20.89;100920.97;5070191;28;20446;-64
2022/04/26 07:44:34;;;;;;;2.80;1.10;;;;;;;30.38;20.43;100918.56;5070394;28;20435;-63
2022/04/26 07:47:02;;;;;;;4.35;1.30;;;;;;;30.00;21.46;100932.22;5070364;28;20441;-63
2022/04/26 07:49:29;;;;;;;5.13;1.50;;;;;;;29.83;21.66;100922.63;5069946;28;20410;-62
2022/04/26 07:51:57;;;;;;;2.92;1.20;;;;;;;29.67;20.87;100932.91;5069907;28;20407;-61
2022/04/26 07:54:27;;;;;;;2.73;1.00;;;;;;;29.93;21.10;100929.88;5070231;28;20411;-62
2022/04/26 07:56:54;;;;;;;2.13;1.50;;;;;;;29.98;21.37;100929.81;5069854;28;20766;-61
2022/04/26 07:59:21;;;;;;;2.50;1.10;;;;;;;29.88;21.01;100929.97;5069673;28;20460;-62
2022/04/26 08:01:48;;;;;;;2.97;1.20;;;;;;;29.77;21.46;100929.28;5069739;28;20418;-62
2022/04/26 08:04:15;;;;;;;2.50;1.05;;;;;;;29.52;21.63;100927.66;5069686;28;20904;-62
2022/04/26 08:06:42;;;;;;;3.28;1.00;;;;;;;29.38;21.15;100933.03;5069863;28;20466;-61
2022/04/26 08:09:09;;;;;;;2.63;1.00;;;;;;;29.47;21.41;100934.00;5069686;28;20414;-61
2022/04/26 08:11:38;;;;;;;1.58;0.85;;;;;;;29.57;21.13;100932.22;5069583;28;20442;-62
2022/04/26 08:14:05;;;;;;;3.30;0.75;;;;;;;29.28;20.51;100927.66;5069937;28;20429;-62
2022/04/26 08:16:32;;;;;;;1.02;0.70;;;;;;;28.69;20.91;100924.97;5069866;28;20438;-62
2022/04/26 08:18:59;;;;;;;3.88;0.90;;;;;;;28.53;21.40;100931.63;5069812;28;20903;-61
2022/04/26 08:21:26;;;;;;;2.80;0.70;;;;;;;28.60;21.45;100927.50;5069584;28;20413;-62
2022/04/26 08:29:23;;;;;;;1.17;0.60;;;;;;;27.44;22.84;100936.06;5069549;28;20985;-62
2022/04/26 08:31:50;;;;;;;1.73;0.57;;;;;;;27.58;22.96;100939.00;5069422;28;20904;-61
2022/04/26 08:34:17;;;;;;;1.00;0.60;;;;;;;27.45;22.22;100941.22;5069786;28;20506;-62
2022/04/26 08:36:44;;;;;;;1.17;0.60;;;;;;;27.33;22.98;100937.19;5069235;28;20446;-62
2022/04/26 08:39:11;;;;;;;2.90;0.85;;;;;;;27.35;22.05;100930.38;5069360;28;20419;-62
2022/04/26 08:43:27;;;;;;;4.33;0.87;;;;;;;27.27;22.72;100934.47;5159518;27;856435;-63
2022/04/26 08:45:58;;;;;;;1.88;0.60;;;;;;;27.47;22.59;100940.94;5190517;27;20527;-63
2022/04/26 08:51:12;;;;;;;1.20;0.50;;;;;;;27.37;21.96;100938.25;5190118;27;20820;-62
2022/04/26 08:53:39;;;;;;;1.20;0.57;;;;;;;27.35;21.70;100935.00;5190319;27;20585;-62
2022/04/26 08:56:07;;;;;;;2.20;0.70;;;;;;;27.22;22.25;100936.38;5189925;27;20438;-64
2022/04/26 08:58:36;;;;;;;1.13;0.60;;;;;;;27.40;22.08;100933.06;5190220;27;20501;-61
2022/04/26 09:01:24;;;;;;;1.40;0.50;;;;;;;27.35;22.75;100941.28;5189751;27;20408;-61
2022/04/26 09:03:55;;;;;;;1.00;0.50;;;;;;;27.33;22.77;100939.91;5189772;27;20936;-61
2022/04/26 09:06:25;;;;;;;1.80;0.40;;;;;;;27.28;22.86;100938.03;5190047;27;20496;-61
2022/04/26 09:09:06;;;;;;;2.63;0.63;;;;;;;27.50;22.80;100934.97;5190059;27;20465;-61
2022/04/26 09:11:34;;;;;;;1.90;0.50;;;;;;;27.39;22.86;100934.19;5189905;27;20410;-61
2022/04/26 09:14:04;;;;;;;2.33;0.60;;;;;;;27.23;23.32;100943.47;5189903;27;20485;-61
2022/04/26 09:16:31;;;;;;;2.65;0.60;;;;;;;26.95;22.80;100929.34;5189560;27;20404;-61
2022/04/26 09:19:00;;;;;;;2.17;0.47;;;;;;;25.91;23.88;100938.47;5189882;27;20410;-61
2022/04/26 09:21:29;;;;;;;1.00;0.63;;;;;;;25.96;24.37;100939.59;5189401;27;20422;-63
2022/04/26 09:23:58;;;;;;;1.90;0.50;;;;;;;26.49;23.75;100937.53;5189796;27;20405;-63
2022/04/26 09:26:32;;;;;;;1.27;0.60;;;;;;;26.28;23.71;100932.06;5189682;27;20413;-63
2022/04/26 09:28:59;;;;;;;1.00;0.50;;;;;;;26.52;23.58;100929.63;5189598;27;20417;-61
2022/04/26 09:31:29;;;;;;;1.80;0.57;;;;;;;26.81;23.43;100933.72;5189631;27;20412;-62
2022/04/26 09:33:59;;;;;;;1.73;0.50;;;;;;;26.75;24.11;100934.81;5189566;27;20488;-61
2022/04/26 09:36:28;;;;;;;3.00;0.60;;;;;;;26.84;24.09;100935.91;5189517;27;20406;-61
2022/04/26 09:38:57;;;;;;;2.75;0.50;;;;;;;26.19;24.02;100930.16;5189368;27;20401;-61
2022/04/26 09:41:26;;;;;;;1.60;0.50;;;;;;;26.30;23.98;100927.16;5189074;27;20405;-62
2022/04/26 09:44:10;;;;;;;1.50;0.40;;;;;;;26.68;23.96;100927.75;5189088;27;20406;-61
2022/04/26 09:46:53;;;;;;;0.30;0.30;;;;;;;26.48;23.40;100928.53;5189052;27;20438;-61
2022/04/26 09:49:21;;;;;;;1.17;0.50;;;;;;;26.66;23.78;100920.97;5188823;27;20410;-62
2022/04/26 09:51:51;;;;;;;2.80;0.50;;;;;;;26.77;24.14;100924.47;5189120;27;20414;-62
2022/04/26 09:54:19;;;;;;;1.58;0.40;;;;;;;26.62;24.39;100926.13;5177593;27;20406;-61
2022/04/26 09:56:47;;;;;;;1.58;0.40;;;;;;;26.14;24.56;100917.34;5174684;27;20784;-62
2022/04/26 09:59:18;;;;;;;1.85;0.55;;;;;;;26.41;24.48;100917.09;5174740;27;20416;-62
2022/04/26 10:01:48;;;;;;;3.30;1.00;;;;;;;26.68;24.23;100913.34;5174589;27;20422;-62
2022/04/26 10:04:20;;;;;;;1.40;0.93;;;;;;;26.73;23.88;100912.53;5174536;27;20410;-62
2022/04/26 10:06:50;;;;;;;3.10;1.10;;;;;;;27.05;23.82;100913.00;5174569;27;20395;-61
2022/04/26 10:09:17;;;;;;;0.80;0.40;;;;;;;26.99;23.70;100911.41;5174792;27;20761;-61
2022/04/26 10:11:44;;;;;;;1.45;0.55;;;;;;;27.03;24.19;100900.78;5174370;27;20417;-62
2022/04/26 10:14:13;;;;;;;3.30;0.50;;;;;;;26.78;23.84;100907.09;5174322;27;20900;-62
2022/04/26 10:16:40;;;;;;;0.88;0.40;;;;;;;27.03;23.44;100908.94;5174370;27;20399;-63
2022/04/26 10:19:09;;;;;;;1.00;0.50;;;;;;;26.98;23.38;100907.03;5174404;27;20899;-62
2022/04/26 10:21:49;;;;;;;2.07;0.70;;;;;;;27.19;23.39;100912.41;5174531;27;20406;-62
2022/04/26 10:24:19;;;;;;;2.67;0.70;;;;;;;27.05;23.86;100909.47;5174166;27;20447;-61
2022/04/26 10:26:47;;;;;;;1.80;0.47;;;;;;;27.33;23.70;100896.34;5174446;27;20490;-62
2022/04/26 10:29:20;;;;;;;1.17;0.50;;;;;;;26.93;23.88;100896.16;5174188;27;20771;-62
2022/04/26 10:31:49;;;;;;;2.03;0.60;;;;;;;27.13;24.18;100889.03;5173996;27;20399;-62
2022/04/26 10:34:20;;;;;;;1.00;0.45;;;;;;;26.59;24.44;100888.56;5174394;27;20414;-62
2022/04/26 10:36:49;;;;;;;2.30;0.50;;;;;;;26.51;24.60;100884.50;5174083;27;20402;-62
2022/04/26 10:39:24;;;;;;;2.90;0.82;;;;;;;27.08;23.90;100887.97;5173837;27;20402;-62
2022/04/26 10:41:52;;;;;;;3.80;0.60;;;;;;;27.02;23.85;100894.50;5173868;27;20398;-62
2022/04/26 10:44:40;;;;;;;3.00;0.70;;;;;;;27.37;23.10;100881.09;5173816;27;20414;-62
2022/04/26 10:47:29;;;;;;;2.00;0.60;;;;;;;27.57;22.54;100880.22;5159717;27;20398;-62
2022/04/26 10:49:59;;;;;;;0.88;0.55;;;;;;;27.52;22.46;100869.34;5174026;27;20399;-62
2022/04/26 10:52:49;;;;;;;4.63;0.90;;;;;;;27.26;23.30;100875.72;5174098;27;20433;-63
2022/04/26 10:55:18;;;;;;;1.50;0.50;;;;;;;27.39;22.92;100881.66;5173933;27;20406;-62
2022/04/26 10:57:50;;;;;;;0.93;0.60;;;;;;;27.22;22.88;100880.03;5173551;27;20432;-62
2022/04/26 11:00:20;;;;;;;1.47;0.50;;;;;;;26.96;23.16;100882.03;5173557;27;20406;-61
2022/04/26 11:02:48;;;;;;;2.60;0.80;;;;;;;26.51;23.17;100881.78;5173701;27;20422;-62
2022/04/26 11:05:17;;;;;;;1.73;0.50;;;;;;;26.50;23.42;100877.41;5172676;27;21555;-62
2022/04/26 11:07:47;;;;;;;1.75;0.57;;;;;;;26.46;22.96;100880.97;5173402;27;20830;-61
2022/04/26 11:10:15;;;;;;;0.93;0.63;;;;;;;26.66;22.64;100880.16;5173381;27;20409;-62
2022/04/26 11:12:43;;;;;;;1.67;0.70;;;;;;;26.85;22.71;100877.69;5173900;27;20428;-62
2022/04/26 11:15:12;;;;;;;2.30;0.80;;;;;;;27.11;22.81;100878.44;5173186;27;20870;-62
2022/04/26 11:17:41;;;;;;;1.30;0.40;;;;;;;26.96;22.30;100878.50;5173519;27;20408;-62
2022/04/26 11:20:13;;;;;;;1.60;0.50;;;;;;;26.81;22.92;100865.72;5173439;27;20411;-62
2022/04/26 11:22:47;;;;;;;0.67;0.50;;;;;;;26.75;23.00;100862.19;5173331;27;20425;-62
2022/04/26 11:28:00;;;;;;;2.05;0.57;;;;;;;26.80;22.91;100864.91;5173169;27;20486;-62
2022/04/26 11:30:30;;;;;;;3.38;0.70;;;;;;;26.81;22.94;100869.28;5173002;27;20408;-62
2022/04/26 11:32:58;;;;;;;1.00;0.50;;;;;;;26.37;23.13;100860.88;5173441;27;20418;-62
2022/04/26 11:35:25;;;;;;;1.77;0.52;;;;;;;26.11;23.72;100858.16;5172744;27;20402;-62
2022/04/26 11:37:55;;;;;;;2.35;0.80;;;;;;;26.23;24.23;100860.59;5172824;27;20788;-62
2022/04/26 11:40:27;;;;;;;1.75;0.80;;;;;;;26.41;23.72;100854.59;5172715;27;20402;-62
2022/04/26 11:42:56;;;;;;;1.27;0.63;;;;;;;26.58;23.26;100858.94;5172803;27;20426;-63
2022/04/26 11:45:28;;;;;;;1.47;0.50;;;;;;;26.17;23.43;100865.19;5172944;27;20430;-61
2022/04/26 11:49:08;;;;;;;1.10;0.57;;;;;;;25.70;23.86;100856.13;5159668;27;858877;-60
2022/04/26 11:51:35;;;;;;;1.33;0.80;;;;;;;25.58;24.24;100846.59;5190127;27;20409;-60
2022/04/26 11:54:02;;;;;;;2.00;0.80;;;;;;;26.03;24.22;100845.09;5190514;27;20409;-61
2022/04/26 11:56:29;;;;;;;1.70;0.60;;;;;;;26.27;24.21;100842.63;5190476;27;20405;-61
2022/04/26 11:58:57;;;;;;;1.98;0.70;;;;;;;26.45;24.16;100836.66;5190398;27;20409;-61
2022/04/26 12:01:24;;;;;;;1.50;0.95;;;;;;;26.36;24.70;100834.75;5190202;27;20462;-61
2022/04/26 12:03:54;;;;;;;2.05;0.77;;;;;;;26.57;24.36;100832.84;5190398;27;20420;-60
2022/04/26 12:06:31;;;;;;;0.70;0.50;;;;;;;26.54;23.97;100836.91;5189849;27;20405;-61
2022/04/26 12:09:00;;;;;;;1.40;0.60;;;;;;;26.57;23.60;100828.22;5189787;27;20421;-61
2022/04/26 12:11:29;;;;;;;0.93;0.75;;;;;;;26.66;23.67;100833.94;5190069;27;20402;-63
2022/04/26 12:14:01;;;;;;;1.38;0.60;;;;;;;26.92;23.49;100826.53;5189785;27;20488;-61
2022/04/26 12:16:29;;;;;;;2.00;0.70;;;;;;;26.91;23.59;100829.53;5189633;27;21143;-60
2022/04/26 12:18:58;;;;;;;1.50;0.50;;;;;;;27.00;22.96;100825.16;5189620;27;20410;-61
2022/04/26 12:21:27;;;;;;;1.60;0.70;;;;;;;26.94;22.77;100824.34;5189981;27;20412;-60
2022/04/26 12:26:05;;;;;;;2.00;0.70;;;;;;;26.77;23.00;100818.41;5118362;27;20492;-61
2022/04/26 12:28:33;;;;;;;0.95;0.50;;;;;;;26.72;22.87;100821.94;5087166;28;20414;-61
2022/04/26 12:31:00;;;;;;;2.80;0.70;;;;;;;26.97;23.08;100820.25;5087220;28;20501;-61
2022/04/26 12:33:29;;;;;;;2.05;0.65;;;;;;;27.16;22.75;100807.66;5087205;28;20406;-61
2022/04/26 12:36:01;;;;;;;0.95;0.70;;;;;;;26.82;23.10;100810.25;5086834;28;20418;-60
2022/04/26 12:38:28;;;;;;;1.92;0.60;;;;;;;26.92;22.81;100803.94;5086743;28;20941;-61
2022/04/26 12:41:05;;;;;;;3.10;0.70;;;;;;;27.09;22.83;100793.56;5086621;28;20787;-61
2022/04/26 12:43:33;;;;;;;1.42;0.60;;;;;;;27.41;21.95;100792.34;5086906;28;20406;-61
2022/04/26 12:46:02;;;;;;;0.93;0.60;;;;;;;27.42;22.52;100783.06;5086428;28;20803;-61
2022/04/26 12:51:20;;;;;;;1.58;0.77;;;;;;;27.05;23.60;100787.84;5086547;28;20406;-61
2022/04/26 12:53:48;;;;;;;1.30;0.70;;;;;;;27.16;23.46;100779.66;5086474;28;21010;-60
2022/04/26 12:56:17;;;;;;;1.33;0.70;;;;;;;26.81;23.28;100774.09;5086418;28;20406;-61
2022/04/26 12:58:46;;;;;;;1.67;0.63;;;;;;;26.55;24.42;100780.66;5086726;28;20420;-61
2022/04/26 13:01:14;;;;;;;1.70;0.73;;;;;;;26.64;24.36;100773.59;5086610;28;20432;-61
2022/04/26 13:03:42;;;;;;;1.48;0.80;;;;;;;26.66;23.61;100772.22;5086196;28;20415;-60
2022/04/26 13:06:11;;;;;;;1.95;1.20;;;;;;;26.77;23.46;100777.63;5086382;28;20438;-61
2022/04/26 13:08:40;;;;;;;3.10;1.20;;;;;;;26.90;23.15;100771.56;5086181;28;20406;-60
2022/04/26 13:11:08;;;;;;;3.60;1.30;;;;;;;26.95;23.30;100768.03;5086352;28;20417;-60
2022/04/26 13:13:39;;;;;;;3.03;1.03;;;;;;;27.02;23.64;100766.63;5086067;28;20791;-61
2022/04/26 13:16:06;;;;;;;0.68;0.68;;;;;;;26.89;23.18;100769.97;5085977;28;20925;-61
2022/04/26 13:18:33;;;;;;;1.10;0.70;;;;;;;26.77;23.39;100764.03;5086325;28;20402;-61
2022/04/26 13:21:01;;;;;;;1.60;0.57;;;;;;;26.65;23.37;100762.44;5086223;28;20406;-61
2022/04/26 13:23:30;;;;;;;1.10;0.60;;;;;;;26.55;23.40;100757.00;5085804;28;20414;-61
2022/04/26 13:25:58;;;;;;;1.63;0.80;;;;;;;26.30;23.73;100760.56;5085593;28;20426;-61
2022/04/26 13:28:25;;;;;;;2.75;0.98;;;;;;;26.56;23.55;100764.06;5085715;28;20414;-61
2022/04/26 13:30:54;;;;;;;3.42;1.00;;;;;;;26.54;24.03;100774.38;5085976;28;20575;-62
2022/04/26 13:33:21;;;;;;;1.50;0.90;;;;;;;26.67;23.59;100762.97;5085646;28;20779;-60
2022/04/26 13:35:48;;;;;;;5.43;1.98;;;;;;;26.64;24.07;100765.44;5081495;28;20443;-60
2022/04/26 13:38:16;;;;;;;3.78;1.40;;;;;;;26.88;23.22;100752.84;5072367;28;20501;-61
2022/04/26 13:40:44;;;;;;;3.20;1.63;;;;;;;26.82;23.28;100750.41;5072254;28;20502;-61
2022/04/26 13:43:11;;;;;;;4.50;2.08;;;;;;;26.76;23.56;100755.06;5071869;28;20468;-61
2022/04/26 13:45:39;;;;;;;2.92;1.42;;;;;;;27.01;23.70;100748.69;5072209;28;20423;-62
2022/04/26 13:48:11;;;;;;;4.20;1.10;;;;;;;27.07;23.59;100746.75;5072210;28;20407;-61
2022/04/26 13:50:39;;;;;;;5.70;1.05;;;;;;;27.04;23.64;100750.84;5071860;28;20954;-61
2022/04/26 13:53:06;;;;;;;2.75;1.00;;;;;;;27.20;23.44;100748.06;5071853;28;20418;-61
2022/04/26 13:55:33;;;;;;;2.73;1.10;;;;;;;27.06;23.84;100747.84;5071962;28;20415;-61
2022/04/26 13:58:03;;;;;;;3.10;1.10;;;;;;;27.05;24.07;100751.69;5072016;28;20486;-61
2022/04/26 14:00:34;;;;;;;3.50;1.10;;;;;;;26.81;24.20;100757.78;5071989;28;20411;-63
2022/04/26 14:03:01;;;;;;;1.90;0.82;;;;;;;26.80;24.31;100749.88;5071991;28;20403;-60
2022/04/26 14:05:30;;;;;;;1.97;0.97;;;;;;;26.89;24.17;100756.38;5071731;28;20426;-61
2022/04/26 14:07:57;;;;;;;4.47;1.10;;;;;;;26.88;23.75;100750.13;5071532;28;20402;-61
2022/04/26 14:10:24;;;;;;;4.37;2.17;;;;;;;26.91;23.37;100751.47;5071827;28;20498;-61
2022/04/26 14:12:51;;;;;;;8.02;2.80;;;;;;;26.82;23.97;100753.13;5071833;28;20425;-61
2022/04/26 14:23:33;;;;;;;1.65;0.80;;;;;;;27.20;23.34;100745.34;5071275;28;20946;-61
2022/04/26 14:26:03;;;;;;;2.85;0.80;;;;;;;26.28;23.74;100751.88;5071194;28;20437;-61
2022/04/26 14:28:29;;;;;;;2.38;1.00;;;;;;;26.61;23.90;100742.31;5071135;28;20426;-62
2022/04/26 14:30:57;;;;;;;1.02;0.68;;;;;;;26.86;22.99;100744.13;5071320;28;20421;-61
2022/04/26 14:33:23;;;;;;;2.00;0.90;;;;;;;26.73;23.30;100746.66;5071122;28;20419;-61
2022/04/26 14:35:52;;;;;;;1.92;0.80;;;;;;;26.29;23.96;100746.19;5071066;28;20411;-61
2022/04/26 14:38:19;;;;;;;4.78;1.10;;;;;;;26.25;24.64;100741.56;5070982;28;20421;-61
2022/04/26 14:40:45;;;;;;;3.17;1.17;;;;;;;26.57;24.18;100743.13;5071202;28;20413;-61
2022/04/26 14:43:14;;;;;;;3.42;1.08;;;;;;;26.89;24.10;100748.22;5070723;28;20421;-62
2022/04/26 14:45:45;;;;;;;1.73;0.80;;;;;;;26.52;24.07;100738.50;5071438;28;20429;-62
2022/04/26 14:48:14;;;;;;;2.97;1.00;;;;;;;26.68;23.60;100739.31;5069747;28;20488;-62
2022/04/26 14:50:41;;;;;;;2.70;1.20;;;;;;;26.86;23.33;100741.41;5070711;28;20489;-62
2022/04/26 14:53:09;;;;;;;3.33;1.10;;;;;;;26.70;23.83;100743.41;5070391;28;20810;-62
2022/04/26 14:55:37;;;;;;;5.95;1.13;;;;;;;26.50;23.77;100737.97;5070433;28;20485;-63
2022/04/26 14:58:04;;;;;;;3.72;1.00;;;;;;;26.68;23.46;100736.59;5070572;28;20980;-62
2022/04/26 15:00:31;;;;;;;1.47;0.90;;;;;;;26.62;23.60;100737.72;5070538;28;20415;-62
2022/04/26 15:02:58;;;;;;;1.40;0.82;;;;;;;26.79;23.40;100737.38;5070782;28;20411;-62
2022/04/26 15:05:26;;;;;;;3.00;1.00;;;;;;;26.67;23.58;100733.06;5070369;28;20437;-62
2022/04/26 15:10:38;;;;;;;3.60;1.00;;;;;;;26.76;23.61;100740.63;5070323;28;20468;-61
2022/04/26 15:18:35;;;;;;;3.65;1.05;;;;;;;26.49;23.77;100734.44;5070246;28;20781;-62
2022/04/26 15:21:02;;;;;;;0.70;0.70;;;;;;;26.08;23.86;100744.59;5070089;28;20793;-62
2022/04/26 15:23:30;;;;;;;1.83;0.80;;;;;;;26.13;23.73;100742.66;5070418;28;20556;-61
2022/04/26 15:25:58;;;;;;;2.17;0.90;;;;;;;26.28;23.50;100733.66;5070373;28;20472;-61
2022/04/26 15:28:25;;;;;;;1.13;0.70;;;;;;;26.28;23.52;100739.09;5070307;28;20420;-63
2022/04/26 15:30:52;;;;;;;7.38;0.90;;;;;;;26.13;23.59;100734.53;5069999;28;20423;-62
2022/04/26 15:33:21;;;;;;;2.65;0.93;;;;;;;25.82;24.26;100732.88;5069857;28;20422;-62
2022/04/26 15:35:48;;;;;;;1.58;0.88;;;;;;;25.90;24.10;100735.84;5069764;28;20402;-62
2022/04/26 15:38:15;;;;;;;2.70;0.80;;;;;;;25.96;24.02;100733.97;5070207;28;20411;-63
2022/04/26 15:40:46;;;;;;;1.95;1.00;;;;;;;26.04;24.38;100730.72;5070162;28;20399;-62
2022/04/26 15:43:15;;;;;;;2.30;0.90;;;;;;;25.94;24.52;100728.81;5070095;28;20460;-62
2022/04/26 15:45:43;;;;;;;3.92;0.90;;;;;;;25.90;24.47;100722.28;5069638;28;20438;-62
2022/04/26 15:48:10;;;;;;;3.50;1.10;;;;;;;25.86;24.91;100725.84;5069748;28;20415;-61